Time;durP1;ratioP1;P1;durP2;ratioP2;P2;SDS_P1;SDS_P2;PMS_P1;PMS_P2;Temp;Humidity;BMP_temperature;BMP_pressure;BME280_temperature;BME280_humidity;BME280_pressure;Samples;Min_cycle;Max_cycle;Signal;HPM_P1;HPM_P2
2023/04/06 00:07:29;;;;;;;2.78;1.05;;;15.00;20.00;;;;;;20836978;28;20111;-57
2023/04/06 00:17:30;;;;;;;4.35;1.40;;;15.10;19.70;;;;;;20834830;28;20049;-58
2023/04/06 00:27:32;;;;;;;2.28;1.35;;;14.90;21.50;;;;;;20835806;28;20399;-58
2023/04/06 00:37:33;;;;;;;3.35;1.30;;;14.70;21.00;;;;;;20834990;28;20049;-57
2023/04/06 00:47:35;;;;;;;4.80;1.98;;;14.70;22.10;;;;;;20833009;28;20045;-56
2023/04/06 00:57:36;;;;;;;2.72;1.35;;;14.30;24.60;;;;;;20831979;28;20049;-57
2023/04/06 01:07:38;;;;;;;3.38;1.40;;;14.10;24.90;;;;;;20832765;28;20552;-56
2023/04/06 01:17:40;;;;;;;4.10;1.60;;;14.00;25.10;;;;;;20830520;28;20158;-57
2023/04/06 01:27:42;;;;;;;3.70;1.23;;;13.70;26.80;;;;;;20831502;28;20080;-56
2023/04/06 01:37:44;;;;;;;4.88;1.90;;;13.40;27.10;;;;;;20831160;28;20463;-56
2023/04/06 01:47:45;;;;;;;2.10;1.15;;;13.20;26.80;;;;;;20830669;28;20049;-56
2023/04/06 01:57:47;;;;;;;6.05;2.17;;;13.30;25.40;;;;;;20830298;28;20092;-57
2023/04/06 02:07:49;;;;;;;3.08;1.20;;;13.40;25.70;;;;;;20830281;28;20115;-56
2023/04/06 02:17:51;;;;;;;1.70;0.90;;;13.50;24.70;;;;;;20828623;28;20060;-57
2023/04/06 02:27:52;;;;;;;3.15;0.90;;;13.60;22.70;;;;;;20830820;28;20049;-56
2023/04/06 02:37:54;;;;;;;2.90;1.40;;;13.60;22.70;;;;;;20844037;28;20046;-57
2023/04/06 02:47:55;;;;;;;1.60;0.80;;;13.30;26.10;;;;;;20843348;28;20052;-56
2023/04/06 02:57:57;;;;;;;3.65;1.40;;;13.00;27.40;;;;;;20841435;28;20056;-56
2023/04/06 03:07:58;;;;;;;3.33;1.80;;;12.80;26.90;;;;;;20842000;28;20049;-57
2023/04/06 03:17:59;;;;;;;1.45;0.95;;;12.70;26.90;;;;;;20839429;28;20061;-57
2023/04/06 03:28:01;;;;;;;1.85;0.93;;;12.70;27.10;;;;;;20840203;28;20049;-57
2023/04/06 03:38:04;;;;;;;3.05;1.00;;;12.50;27.20;;;;;;20838275;28;20049;-56
2023/04/06 03:48:05;;;;;;;2.15;1.10;;;12.70;26.10;;;;;;20838296;28;20049;-58
2023/04/06 03:58:07;;;;;;;2.80;1.02;;;12.90;24.80;;;;;;20838145;28;20077;-56
2023/04/06 04:08:08;;;;;;;2.60;0.73;;;13.00;23.70;;;;;;20837318;28;20494;-57
2023/04/06 04:18:10;;;;;;;2.50;0.95;;;13.10;23.50;;;;;;20835499;28;20101;-57
2023/04/06 04:28:11;;;;;;;2.55;0.90;;;13.10;23.40;;;;;;20835639;28;20506;-57
2023/04/06 04:38:12;;;;;;;3.88;1.00;;;13.00;23.40;;;;;;20834973;28;20045;-56
2023/04/06 04:48:14;;;;;;;1.70;1.13;;;13.00;23.30;;;;;;20834253;28;20499;-56
2023/04/06 04:58:16;;;;;;;5.45;1.25;;;12.90;23.50;;;;;;20832713;28;20446;-57
2023/04/06 05:08:17;;;;;;;2.25;1.17;;;12.80;24.10;;;;;;20832961;28;20059;-57
2023/04/06 05:18:19;;;;;;;2.05;1.10;;;12.70;24.20;;;;;;20831040;28;20061;-56
2023/04/06 05:28:20;;;;;;;2.53;1.33;;;12.70;24.20;;;;;;20831652;28;20046;-57
2023/04/06 05:38:22;;;;;;;4.43;1.50;;;12.50;24.40;;;;;;20830164;28;20053;-56
2023/04/06 05:48:23;;;;;;;2.47;1.60;;;12.50;24.80;;;;;;20830921;28;20068;-55
2023/04/06 05:58:25;;;;;;;2.00;1.10;;;12.10;29.50;;;;;;20830083;28;20046;-56
2023/04/06 06:08:26;;;;;;;3.75;1.10;;;11.70;30.40;;;;;;20840728;28;20530;-56
2023/04/06 06:18:27;;;;;;;3.72;1.50;;;11.50;30.00;;;;;;20844750;28;20446;-56
2023/04/06 06:28:29;;;;;;;10.50;2.45;;;11.50;30.30;;;;;;20845166;28;20056;-56
2023/04/06 06:38:31;;;;;;;7.20;1.80;;;11.40;31.40;;;;;;20843288;28;20045;-55
2023/04/06 06:48:33;;;;;;;3.35;1.65;;;11.40;32.30;;;;;;20843373;28;20522;-56
2023/04/06 06:58:34;;;;;;;8.52;2.78;;;11.80;30.40;;;;;;20841404;28;20049;-55
2023/04/06 07:08:35;;;;;;;1.98;1.20;;;12.40;30.70;;;;;;20841209;28;20092;-57
2023/04/06 07:18:37;;;;;;;3.50;1.30;;;12.30;30.90;;;;;;20838582;28;20053;-58
2023/04/06 07:28:38;;;;;;;4.57;1.60;;;12.20;31.10;;;;;;20839622;28;20049;-57
2023/04/06 07:38:39;;;;;;;3.00;1.95;;;12.30;31.20;;;;;;20839443;28;20494;-56
2023/04/06 07:48:41;;;;;;;5.60;1.67;;;12.50;30.70;;;;;;20837884;28;20095;-57
2023/04/06 07:58:42;;;;;;;3.38;1.45;;;12.90;30.10;;;;;;20836261;28;20057;-56
2023/04/06 08:08:44;;;;;;;4.13;1.85;;;13.40;29.80;;;;;;20836163;28;20449;-57
2023/04/06 08:18:45;;;;;;;5.00;1.30;;;13.70;29.10;;;;;;20834430;28;20503;-57
2023/04/06 08:28:47;;;;;;;4.57;1.35;;;14.10;29.90;;;;;;20833073;28;20056;-57
2023/04/06 08:38:49;;;;;;;5.00;1.42;;;14.40;29.70;;;;;;20834013;28;20538;-57
2023/04/06 08:48:51;;;;;;;3.47;1.75;;;14.70;30.80;;;;;;20832270;28;20074;-57
2023/04/06 08:58:53;;;;;;;2.40;1.20;;;14.90;33.00;;;;;;20833244;28;20046;-59
2023/04/06 09:08:55;;;;;;;4.47;1.40;;;15.30;32.10;;;;;;20832620;28;20077;-58
2023/04/06 09:19:04;;;;;;;5.45;1.63;;;15.60;33.20;;;;;;20830157;28;20053;-57
2023/04/06 09:29:06;;;;;;;2.75;1.77;;;16.00;33.80;;;;;;20831126;28;20072;-57
2023/04/06 09:39:07;;;;;;;6.43;1.90;;;16.00;33.10;;;;;;20830487;28;20050;-57
2023/04/06 09:49:10;;;;;;;3.03;1.80;;;16.40;32.00;;;;;;20830392;28;20442;-57
2023/04/06 09:59:17;;;;;;;4.07;1.40;;;16.50;32.00;;;;;;20828784;28;20049;-57
2023/04/06 10:09:25;;;;;;;4.10;1.48;;;16.70;32.00;;;;;;20829964;28;20057;-57
2023/04/06 10:19:41;;;;;;;3.63;1.67;;;16.80;32.70;;;;;;20830141;28;20521;-56
2023/04/06 10:29:45;;;;;;;6.85;1.40;;;17.20;31.70;;;;;;20829469;28;20057;-58
2023/04/06 10:39:58;;;;;;;5.13;1.50;;;17.40;30.60;;;;;;20828556;28;20502;-58
2023/04/06 10:49:59;;;;;;;6.25;1.50;;;17.60;30.60;;;;;;20829228;28;20053;-56
2023/04/06 11:00:00;;;;;;;3.25;1.45;;;17.80;29.10;;;;;;20841847;28;20402;-59
2023/04/06 11:10:02;;;;;;;4.53;1.40;;;18.00;28.80;;;;;;20841470;28;20064;-57
2023/04/06 11:20:09;;;;;;;3.75;1.15;;;18.20;28.70;;;;;;20841754;28;20052;-57
2023/04/06 11:30:11;;;;;;;4.65;1.33;;;18.40;28.20;;;;;;20840235;28;20529;-57
2023/04/06 11:40:13;;;;;;;4.43;1.13;;;18.80;26.70;;;;;;20839505;28;20495;-57
2023/04/06 11:50:15;;;;;;;4.20;1.10;;;19.00;26.20;;;;;;20838901;28;20049;-58
2023/04/06 12:00:17;;;;;;;5.60;1.20;;;19.20;25.10;;;;;;20836363;28;20049;-58
2023/04/06 12:10:18;;;;;;;3.60;1.20;;;19.40;24.40;;;;;;20836957;28;20053;-58
2023/04/06 12:20:20;;;;;;;2.88;1.30;;;19.60;24.10;;;;;;20835016;28;20136;-59
2023/04/06 12:30:21;;;;;;;2.60;0.98;;;19.80;22.10;;;;;;20835735;28;20046;-57
2023/04/06 12:40:23;;;;;;;2.10;1.20;;;20.20;21.30;;;;;;20833665;28;20057;-59
2023/04/06 12:50:25;;;;;;;1.27;0.80;;;20.40;20.00;;;;;;20833085;28;20041;-58
2023/04/06 13:00:26;;;;;;;1.42;0.85;;;20.60;17.90;;;;;;20833331;28;20045;-56
2023/04/06 13:10:28;;;;;;;1.33;0.82;;;20.70;17.10;;;;;;20832796;28;20041;-56
2023/04/06 13:20:29;;;;;;;8.80;1.20;;;20.80;17.30;;;;;;20829932;28;20049;-58
2023/04/06 13:30:31;;;;;;;4.57;1.40;;;21.10;17.20;;;;;;20831406;28;20446;-57
2023/04/06 13:40:32;;;;;;;5.20;2.00;;;21.20;17.30;;;;;;20830727;28;20054;-58
2023/04/06 13:50:34;;;;;;;3.60;1.30;;;21.20;17.40;;;;;;20828885;28;20089;-58
2023/04/06 14:00:36;;;;;;;1.80;0.97;;;21.40;17.20;;;;;;20830440;28;20045;-57
2023/04/06 14:10:40;;;;;;;2.95;1.60;;;21.70;16.40;;;;;;20829738;28;20107;-59
2023/04/06 14:20:41;;;;;;;3.00;1.67;;;21.60;16.30;;;;;;20828114;28;20111;-57
2023/04/06 14:30:43;;;;;;;1.63;1.00;;;21.80;16.40;;;;;;20841196;28;20058;-57
2023/04/06 14:40:45;;;;;;;2.43;0.77;;;21.90;16.30;;;;;;20843821;28;20049;-58
2023/04/06 14:50:53;;;;;;;1.92;1.20;;;22.10;15.90;;;;;;20843272;28;20453;-57
2023/04/06 15:00:59;;;;;;;1.60;0.73;;;22.10;15.90;;;;;;20842617;28;20053;-58
2023/04/06 15:11:00;;;;;;;2.85;0.95;;;22.20;16.30;;;;;;20841723;28;20184;-57
2023/04/06 15:21:02;;;;;;;3.72;1.65;;;22.20;16.00;;;;;;20839979;28;20049;-58
2023/04/06 15:31:12;;;;;;;1.75;1.00;;;22.30;16.90;;;;;;20838858;28;20060;-57
2023/04/06 15:41:14;;;;;;;2.67;1.00;;;22.50;15.80;;;;;;20837010;28;20049;-58
2023/04/06 15:51:16;;;;;;;3.40;1.30;;;22.40;15.90;;;;;;20838419;28;20060;-57
2023/04/06 16:01:18;;;;;;;2.13;1.13;;;22.50;15.90;;;;;;20836121;28;20050;-56
2023/04/06 16:11:20;;;;;;;4.50;2.97;;;22.50;15.80;;;;;;20835582;28;20046;-57
2023/04/06 16:21:21;;;;;;;2.08;1.20;;;22.60;16.90;;;;;;20833792;28;20462;-58
2023/04/06 16:31:23;;;;;;;3.63;1.40;;;22.60;16.30;;;;;;20834862;28;20107;-59
2023/04/06 16:41:27;;;;;;;4.60;1.10;;;22.50;16.10;;;;;;20834668;28;20049;-58
2023/04/06 16:51:31;;;;;;;2.15;0.73;;;22.50;16.30;;;;;;20832457;28;20085;-58
2023/04/06 17:01:32;;;;;;;3.75;1.17;;;22.40;16.70;;;;;;20833223;28;20415;-56
2023/04/06 17:11:34;;;;;;;2.35;0.95;;;22.40;16.60;;;;;;20832006;28;20486;-58
2023/04/06 17:21:35;;;;;;;3.63;1.52;;;22.40;16.70;;;;;;20829752;28;20045;-58
2023/04/06 17:31:37;;;;;;;1.65;0.90;;;22.20;16.80;;;;;;20831368;28;20077;-58
2023/04/06 17:41:40;;;;;;;2.67;1.10;;;22.10;17.40;;;;;;20830652;28;20055;-58
2023/04/06 17:51:41;;;;;;;1.30;0.82;;;21.90;17.50;;;;;;20826979;28;20290;-58
2023/04/06 18:01:43;;;;;;;2.22;0.90;;;21.70;18.00;;;;;;20834618;28;20056;-57
2023/04/06 18:11:44;;;;;;;2.88;1.60;;;21.60;17.70;;;;;;20844476;28;20402;-58
2023/04/06 18:21:45;;;;;;;4.60;2.80;;;21.30;17.90;;;;;;20842285;28;20099;-57
2023/04/06 18:31:49;;;;;;;2.80;1.50;;;21.20;17.70;;;;;;20841858;28;20045;-57
2023/04/06 18:41:50;;;;;;;4.22;2.83;;;21.10;17.70;;;;;;20842699;28;20125;-58
2023/04/06 18:51:52;;;;;;;6.47;5.07;;;20.90;17.90;;;;;;20841993;28;20049;-57
2023/04/06 19:01:54;;;;;;;6.65;3.20;;;20.70;18.10;;;;;;20840898;28;20057;-57
2023/04/06 19:11:56;;;;;;;11.70;7.57;;;20.50;18.40;;;;;;20838678;28;20099;-57
2023/04/06 19:21:59;;;;;;;16.60;10.90;;;20.30;18.80;;;;;;20839386;28;20056;-58
2023/04/06 19:32:01;;;;;;;17.75;11.93;;;20.20;18.90;;;;;;20838011;28;20056;-57
2023/04/06 19:42:03;;;;;;;15.23;9.95;;;19.90;19.40;;;;;;20838180;28;20091;-58
2023/04/06 19:52:05;;;;;;;17.15;9.65;;;19.70;19.90;;;;;;20837660;28;20050;-59
2023/04/06 20:02:07;;;;;;;15.02;8.05;;;19.60;20.60;;;;;;20837245;28;20057;-58
2023/04/06 20:12:08;;;;;;;15.38;5.75;;;19.50;20.70;;;;;;20835472;28;20052;-59
2023/04/06 20:22:09;;;;;;;15.20;6.68;;;19.00;21.90;;;;;;20836103;28;20057;-58
2023/04/06 20:32:13;;;;;;;6.88;4.30;;;18.60;22.80;;;;;;20834732;28;20049;-58
2023/04/06 20:42:15;;;;;;;11.57;6.57;;;18.40;24.70;;;;;;20833562;28;20042;-59
2023/04/06 20:52:16;;;;;;;11.18;4.38;;;17.90;26.00;;;;;;20832879;28;20078;-60
2023/04/06 21:02:18;;;;;;;11.63;4.45;;;17.70;26.20;;;;;;20832485;28;20046;-60
2023/04/06 21:12:20;;;;;;;8.18;3.28;;;17.50;27.00;;;;;;20833074;28;20414;-58
2023/04/06 21:22:22;;;;;;;10.02;5.05;;;17.30;27.70;;;;;;20830846;28;20045;-57
2023/04/06 21:32:23;;;;;;;8.35;3.63;;;17.20;28.30;;;;;;20831534;28;20061;-58
2023/04/06 21:42:25;;;;;;;16.08;9.23;;;16.90;29.00;;;;;;20830622;28;20466;-59
2023/04/06 21:52:26;;;;;;;11.50;2.80;;;16.70;29.50;;;;;;20830760;28;20052;-57
2023/04/06 22:02:27;;;;;;;5.30;2.22;;;16.60;29.90;;;;;;20830143;28;20052;-57
2023/04/06 22:12:29;;;;;;;5.85;2.80;;;16.40;30.60;;;;;;20828637;28;20054;-56
2023/04/06 22:22:30;;;;;;;10.90;4.60;;;16.30;30.60;;;;;;20828748;28;20049;-58
2023/04/06 22:32:32;;;;;;;6.72;2.85;;;16.30;30.40;;;;;;20829418;28;20129;-58
2023/04/06 22:42:33;;;;;;;5.22;2.17;;;16.20;30.60;;;;;;20829094;28;20049;-56
2023/04/06 22:52:35;;;;;;;6.03;2.65;;;16.00;31.40;;;;;;20841826;28;20046;-56
2023/04/06 23:02:36;;;;;;;4.53;2.33;;;15.70;31.20;;;;;;20843209;28;20081;-57
2023/04/06 23:12:37;;;;;;;3.40;1.27;;;15.80;28.30;;;;;;20842057;28;20498;-57
2023/04/06 23:22:39;;;;;;;4.22;1.48;;;16.00;24.70;;;;;;20841572;28;20502;-56
2023/04/06 23:32:40;;;;;;;2.60;1.25;;;16.10;24.10;;;;;;20840981;28;20045;-57
2023/04/06 23:42:42;;;;;;;5.53;1.40;;;16.20;22.90;;;;;;20838759;28;20053;-56
2023/04/06 23:52:43;;;;;;;2.75;1.45;;;16.10;22.90;;;;;;20839230;28;20088;-57
